Time;durP1;ratioP1;P1;durP2;ratioP2;P2;SDS_P1;SDS_P2;PMS_P1;PMS_P2;Temp;Humidity;BMP_temperature;BMP_pressure;BME280_temperature;BME280_humidity;BME280_pressure;Samples;Min_cycle;Max_cycle;Signal;HPM_P1;HPM_P2
2023/01/03 00:00:38;;;;;;;1.02;0.60;;;;;;;;;;5049043;28;20068;-77
2023/01/03 00:03:25;;;;;;;0.77;0.65;;;;;;;;;;5034980;28;20037;-75
2023/01/03 00:06:16;;;;;;;0.90;0.70;;;;;;;;;;5049656;28;20033;-76
2023/01/03 00:09:03;;;;;;;0.70;0.70;;;;;;;;;;5032249;28;20021;-86
2023/01/03 00:14:53;;;;;;;2.05;0.70;;;;;;;;;;5048949;28;20373;-83
2023/01/03 00:17:38;;;;;;;1.85;0.70;;;;;;;;;;5035861;28;20059;-84
2023/01/03 00:20:24;;;;;;;1.85;0.75;;;;;;;;;;5039131;28;20051;-82
2023/01/03 00:23:09;;;;;;;1.33;0.70;;;;;;;;;;5062392;28;20035;-85
2023/01/03 00:25:54;;;;;;;1.15;0.60;;;;;;;;;;5048379;28;20021;-84
2023/01/03 00:28:40;;;;;;;0.95;0.80;;;;;;;;;;5048550;28;20025;-75
2023/01/03 00:31:25;;;;;;;2.28;1.02;;;;;;;;;;5040262;28;20409;-72
2023/01/03 00:34:10;;;;;;;2.15;1.10;;;;;;;;;;5033509;28;20444;-71
2023/01/03 00:36:55;;;;;;;0.75;0.73;;;;;;;;;;5035484;28;20032;-72
2023/01/03 00:39:42;;;;;;;1.42;0.80;;;;;;;;;;5042713;28;20026;-71
2023/01/03 00:42:27;;;;;;;5.63;1.40;;;;;;;;;;5031444;28;20048;-75
2023/01/03 00:45:13;;;;;;;2.50;0.98;;;;;;;;;;5047772;28;20526;-76
2023/01/03 00:47:58;;;;;;;1.30;1.00;;;;;;;;;;5052595;28;20425;-76
2023/01/03 00:50:43;;;;;;;0.52;0.50;;;;;;;;;;5050761;28;20037;-75
2023/01/03 00:53:28;;;;;;;3.08;0.73;;;;;;;;;;5046756;28;20075;-75
2023/01/03 00:56:15;;;;;;;1.83;0.80;;;;;;;;;;5031407;28;20102;-75
2023/01/03 00:59:00;;;;;;;1.23;0.73;;;;;;;;;;5040820;28;20033;-77
2023/01/03 01:01:47;;;;;;;0.75;0.70;;;;;;;;;;5035494;28;20025;-67
2023/01/03 01:04:38;;;;;;;1.33;0.70;;;;;;;;;;5050026;28;20021;-77
2023/01/03 01:07:23;;;;;;;6.07;1.02;;;;;;;;;;5057192;28;20079;-83
2023/01/03 01:10:09;;;;;;;1.30;0.60;;;;;;;;;;5049779;28;20025;-84
2023/01/03 01:12:54;;;;;;;1.55;0.80;;;;;;;;;;5049113;28;20119;-83
2023/01/03 01:15:40;;;;;;;0.85;0.70;;;;;;;;;;5034723;28;20098;-83
2023/01/03 01:18:25;;;;;;;1.60;0.80;;;;;;;;;;5048825;28;20036;-85
2023/01/03 01:21:12;;;;;;;2.90;1.02;;;;;;;;;;5048105;28;20069;-74
2023/01/03 01:23:58;;;;;;;2.65;0.93;;;;;;;;;;5059328;28;20412;-77
2023/01/03 01:26:44;;;;;;;2.78;1.00;;;;;;;;;;5029047;28;20117;-75
2023/01/03 01:29:29;;;;;;;1.13;0.70;;;;;;;;;;5053755;28;20063;-77
2023/01/03 01:32:14;;;;;;;1.58;0.80;;;;;;;;;;5034842;28;20037;-76
2023/01/03 01:34:59;;;;;;;2.50;0.65;;;;;;;;;;5033546;28;20424;-77
2023/01/03 01:37:44;;;;;;;1.38;0.80;;;;;;;;;;5050155;28;20039;-78
2023/01/03 01:40:30;;;;;;;4.47;1.00;;;;;;;;;;5047031;28;20095;-78
2023/01/03 01:46:23;;;;;;;2.45;0.77;;;;;;;;;;5044796;28;20037;-73
2023/01/03 01:49:11;;;;;;;1.25;0.80;;;;;;;;;;5048745;28;20573;-74
2023/01/03 01:51:57;;;;;;;1.00;0.70;;;;;;;;;;5032784;28;20032;-73
2023/01/03 01:54:42;;;;;;;1.25;0.77;;;;;;;;;;5046614;28;20111;-72
2023/01/03 01:57:28;;;;;;;0.65;0.65;;;;;;;;;;5046833;28;20044;-68
2023/01/03 02:00:13;;;;;;;1.55;1.23;;;;;;;;;;5026786;28;20048;-82
2023/01/03 02:02:59;;;;;;;0.80;0.70;;;;;;;;;;5054166;28;20033;-83
2023/01/03 02:05:46;;;;;;;1.02;0.80;;;;;;;;;;5047532;28;20037;-84
2023/01/03 02:08:31;;;;;;;2.47;0.90;;;;;;;;;;5052510;28;20142;-83
2023/01/03 02:11:16;;;;;;;1.33;0.68;;;;;;;;;;5051575;28;20041;-83
2023/01/03 02:14:11;;;;;;;1.45;0.75;;;;;;;;;;5051520;28;20119;-83
2023/01/03 02:17:21;;;;;;;3.60;1.00;;;;;;;;;;5040703;28;20098;-72
2023/01/03 02:20:39;;;;;;;2.17;0.70;;;;;;;;;;5037559;28;20029;-76
2023/01/03 02:23:24;;;;;;;0.80;0.70;;;;;;;;;;5049851;28;20036;-75
2023/01/03 02:26:32;;;;;;;1.33;1.00;;;;;;;;;;5050665;28;20418;-75
2023/01/03 02:29:19;;;;;;;0.77;0.70;;;;;;;;;;5043499;28;20675;-77
2023/01/03 02:32:28;;;;;;;2.35;0.60;;;;;;;;;;5050598;28;20116;-76
2023/01/03 02:35:36;;;;;;;1.03;0.80;;;;;;;;;;5056020;28;20677;-75
2023/01/03 02:38:25;;;;;;;0.60;0.60;;;;;;;;;;5061463;28;20032;-76
2023/01/03 02:41:34;;;;;;;3.88;0.93;;;;;;;;;;5050779;28;20064;-76
2023/01/03 02:44:32;;;;;;;1.10;0.77;;;;;;;;;;5049502;28;20405;-76
2023/01/03 02:47:18;;;;;;;1.38;0.80;;;;;;;;;;5050140;28;20021;-75
2023/01/03 02:50:05;;;;;;;1.08;0.90;;;;;;;;;;5032532;28;20039;-75
2023/01/03 02:52:51;;;;;;;0.73;0.73;;;;;;;;;;5049839;28;20372;-68
2023/01/03 02:55:37;;;;;;;2.25;0.70;;;;;;;;;;5036466;28;20068;-75
2023/01/03 02:58:25;;;;;;;1.92;0.80;;;;;;;;;;5024123;28;20038;-74
2023/01/03 03:01:11;;;;;;;1.25;0.90;;;;;;;;;;5017280;28;20124;-75
2023/01/03 03:03:57;;;;;;;1.15;0.65;;;;;;;;;;5045618;28;20499;-74
2023/01/03 03:06:55;;;;;;;1.70;0.88;;;;;;;;;;5045294;28;20476;-76
2023/01/03 03:15:49;;;;;;;1.15;0.77;;;;;;;;;;5047278;28;20103;-84
2023/01/03 03:18:38;;;;;;;1.15;0.90;;;;;;;;;;5041414;28;20460;-82
2023/01/03 03:30:41;;;;;;;2.92;0.98;;;;;;;;;;5050381;28;20037;-67
2023/01/03 03:33:27;;;;;;;3.50;1.38;;;;;;;;;;5044137;28;20087;-70
2023/01/03 03:36:16;;;;;;;5.10;0.80;;;;;;;;;;5035603;28;20570;-68
2023/01/03 03:39:02;;;;;;;1.58;1.13;;;;;;;;;;5055746;28;20067;-67
2023/01/03 03:45:02;;;;;;;1.35;0.85;;;;;;;;;;5038603;28;20028;-68
2023/01/03 03:47:53;;;;;;;1.75;1.00;;;;;;;;;;5052059;28;20047;-75
2023/01/03 03:50:39;;;;;;;1.33;0.80;;;;;;;;;;5034916;28;20043;-76
2023/01/03 03:53:26;;;;;;;2.63;0.82;;;;;;;;;;5032949;28;20039;-75
2023/01/03 03:56:14;;;;;;;4.40;0.90;;;;;;;;;;5047724;28;20039;-75
2023/01/03 03:59:01;;;;;;;1.88;0.90;;;;;;;;;;5019504;28;20384;-76
2023/01/03 04:01:46;;;;;;;3.38;1.08;;;;;;;;;;5048139;28;20114;-74
2023/01/03 04:04:34;;;;;;;1.27;0.80;;;;;;;;;;5033816;28;20060;-74
2023/01/03 04:07:20;;;;;;;2.55;0.90;;;;;;;;;;5048364;28;20286;-84
2023/01/03 04:10:05;;;;;;;1.77;0.70;;;;;;;;;;5048400;28;20092;-75
2023/01/03 04:12:51;;;;;;;1.85;0.90;;;;;;;;;;5023032;28;20067;-76
2023/01/03 04:15:36;;;;;;;1.23;0.90;;;;;;;;;;5048425;28;20487;-76
2023/01/03 04:18:21;;;;;;;1.15;0.80;;;;;;;;;;5034868;28;20025;-77
2023/01/03 04:21:07;;;;;;;3.28;1.27;;;;;;;;;;5048186;28;20039;-76
2023/01/03 04:23:52;;;;;;;1.58;1.05;;;;;;;;;;5050955;28;20527;-76
2023/01/03 04:26:37;;;;;;;2.67;0.75;;;;;;;;;;5048566;28;20040;-76
2023/01/03 04:29:22;;;;;;;1.00;0.80;;;;;;;;;;5037586;28;20112;-78
2023/01/03 04:32:08;;;;;;;0.93;0.73;;;;;;;;;;5047899;28;20064;-78
2023/01/03 04:34:54;;;;;;;4.20;1.00;;;;;;;;;;5034346;28;20036;-76
2023/01/03 04:37:39;;;;;;;1.08;0.90;;;;;;;;;;5051468;28;20098;-76
2023/01/03 04:40:24;;;;;;;2.47;1.08;;;;;;;;;;5048748;28;20043;-76
2023/01/03 04:46:13;;;;;;;1.08;0.90;;;;;;;;;;5042914;28;20043;-75
2023/01/03 04:48:59;;;;;;;1.42;0.80;;;;;;;;;;5049971;28;20050;-76
2023/01/03 04:51:44;;;;;;;2.10;1.20;;;;;;;;;;5033111;28;20040;-76
2023/01/03 04:54:29;;;;;;;1.15;0.85;;;;;;;;;;5046649;28;20029;-76
2023/01/03 04:57:15;;;;;;;2.55;0.98;;;;;;;;;;5032330;28;20111;-76
2023/01/03 05:00:00;;;;;;;1.65;0.85;;;;;;;;;;5039183;28;20036;-77
2023/01/03 05:02:45;;;;;;;4.35;1.60;;;;;;;;;;5047981;28;20041;-78
2023/01/03 05:05:30;;;;;;;1.40;0.82;;;;;;;;;;5047902;28;20064;-84
2023/01/03 05:08:15;;;;;;;2.83;1.00;;;;;;;;;;5051291;28;20399;-84
2023/01/03 05:11:01;;;;;;;1.63;0.80;;;;;;;;;;5047605;28;20484;-85
2023/01/03 05:13:46;;;;;;;3.03;1.27;;;;;;;;;;5054114;28;20037;-84
2023/01/03 05:16:31;;;;;;;1.13;0.70;;;;;;;;;;5047844;28;20044;-83
2023/01/03 05:19:17;;;;;;;2.70;1.00;;;;;;;;;;5047091;28;20028;-76
2023/01/03 05:28:10;;;;;;;2.03;1.00;;;;;;;;;;5047628;28;20033;-85
2023/01/03 05:30:56;;;;;;;5.25;1.23;;;;;;;;;;5034016;28;20108;-83
2023/01/03 05:33:41;;;;;;;3.92;1.00;;;;;;;;;;5047977;28;20075;-83
2023/01/03 05:36:27;;;;;;;1.35;1.05;;;;;;;;;;5047583;28;20037;-83
2023/01/03 05:39:12;;;;;;;2.45;1.27;;;;;;;;;;5041431;28;20554;-76
2023/01/03 05:42:00;;;;;;;3.78;1.27;;;;;;;;;;5047377;28;20112;-68
2023/01/03 05:44:45;;;;;;;1.00;0.90;;;;;;;;;;5053551;28;20309;-68
2023/01/03 05:47:31;;;;;;;2.40;0.95;;;;;;;;;;5042867;28;20037;-68
2023/01/03 05:50:16;;;;;;;2.10;1.00;;;;;;;;;;5051626;28;20118;-65
2023/01/03 05:53:02;;;;;;;1.45;1.10;;;;;;;;;;5051323;28;20033;-65
2023/01/03 05:55:48;;;;;;;2.17;0.82;;;;;;;;;;5037266;28;20467;-67
2023/01/03 05:58:33;;;;;;;1.25;0.82;;;;;;;;;;5050796;28;20079;-66
2023/01/03 06:01:18;;;;;;;1.58;0.90;;;;;;;;;;5040850;28;20499;-84
2023/01/03 06:04:03;;;;;;;2.95;1.33;;;;;;;;;;5037383;28;20476;-82
2023/01/03 06:06:49;;;;;;;1.38;0.90;;;;;;;;;;5040067;28;20692;-83
2023/01/03 06:09:34;;;;;;;2.63;1.10;;;;;;;;;;5033053;28;20041;-83
2023/01/03 06:12:19;;;;;;;3.53;1.10;;;;;;;;;;5051545;28;20112;-83
2023/01/03 06:15:05;;;;;;;1.95;1.05;;;;;;;;;;5050326;28;20033;-74
2023/01/03 06:17:53;;;;;;;1.90;1.17;;;;;;;;;;5057931;28;20090;-69
2023/01/03 06:20:38;;;;;;;2.05;1.13;;;;;;;;;;5050294;28;20048;-68
2023/01/03 06:23:24;;;;;;;1.35;0.93;;;;;;;;;;5056428;28;20036;-69
2023/01/03 06:26:09;;;;;;;3.05;1.10;;;;;;;;;;5050490;28;20464;-69
2023/01/03 06:28:54;;;;;;;4.25;1.55;;;;;;;;;;5050545;28;20032;-69
2023/01/03 06:31:40;;;;;;;3.33;1.10;;;;;;;;;;5045262;28;20040;-69
2023/01/03 06:34:25;;;;;;;2.78;1.30;;;;;;;;;;5036904;28;20057;-84
2023/01/03 06:37:11;;;;;;;6.35;1.60;;;;;;;;;;5055723;28;20096;-74
2023/01/03 06:39:56;;;;;;;1.20;1.00;;;;;;;;;;5050289;28;20032;-73
2023/01/03 06:42:41;;;;;;;3.65;1.45;;;;;;;;;;5050377;28;20041;-74
2023/01/03 06:54:39;;;;;;;3.33;1.30;;;;;;;;;;5051276;28;20539;-71
2023/01/03 06:57:24;;;;;;;2.83;1.23;;;;;;;;;;5049487;28;20488;-74
2023/01/03 07:00:09;;;;;;;2.83;1.40;;;;;;;;;;5042853;28;20071;-76
2023/01/03 07:02:55;;;;;;;2.25;1.25;;;;;;;;;;5038373;28;20032;-74
2023/01/03 07:05:40;;;;;;;5.25;1.25;;;;;;;;;;5041872;28;20033;-74
2023/01/03 07:08:25;;;;;;;4.20;1.50;;;;;;;;;;5052940;28;20033;-75
2023/01/03 07:11:10;;;;;;;7.10;2.45;;;;;;;;;;5036734;28;20388;-83
2023/01/03 07:13:59;;;;;;;4.13;1.95;;;;;;;;;;5044418;28;20290;-67
2023/01/03 07:16:45;;;;;;;6.72;2.35;;;;;;;;;;5049885;28;20099;-65
2023/01/03 07:19:30;;;;;;;6.10;2.15;;;;;;;;;;5035898;28;20029;-68
2023/01/03 07:22:15;;;;;;;3.28;1.88;;;;;;;;;;5062928;28;20024;-66
2023/01/03 07:25:01;;;;;;;2.75;1.45;;;;;;;;;;5035483;28;20078;-66
2023/01/03 07:27:53;;;;;;;4.15;2.03;;;;;;;;;;5049333;28;20082;-66
2023/01/03 07:30:39;;;;;;;3.78;1.60;;;;;;;;;;5048927;28;20068;-72
2023/01/03 07:33:24;;;;;;;2.30;1.40;;;;;;;;;;5049175;28;20060;-75
2023/01/03 07:36:10;;;;;;;2.88;1.63;;;;;;;;;;5048556;28;20032;-77
2023/01/03 07:38:56;;;;;;;3.50;1.77;;;;;;;;;;5057746;28;20069;-76
2023/01/03 07:44:45;;;;;;;3.17;1.60;;;;;;;;;;5046990;28;20032;-74
2023/01/03 07:47:30;;;;;;;5.93;1.85;;;;;;;;;;5036110;28;20041;-72
2023/01/03 07:50:16;;;;;;;4.63;2.00;;;;;;;;;;5048865;28;20072;-72
2023/01/03 07:53:01;;;;;;;5.13;2.70;;;;;;;;;;5052344;28;20048;-71
2023/01/03 07:55:46;;;;;;;4.60;1.95;;;;;;;;;;5052700;28;20108;-73
2023/01/03 07:58:31;;;;;;;7.18;1.90;;;;;;;;;;5048733;28;20551;-72
2023/01/03 08:01:21;;;;;;;3.55;1.77;;;;;;;;;;5018581;28;20083;-72
2023/01/03 08:04:06;;;;;;;4.90;1.95;;;;;;;;;;5033570;28;20078;-73
2023/01/03 08:06:51;;;;;;;6.22;2.00;;;;;;;;;;5050804;28;20767;-67
2023/01/03 08:15:45;;;;;;;6.22;2.05;;;;;;;;;;5045843;28;20029;-72
2023/01/03 08:18:30;;;;;;;2.15;1.60;;;;;;;;;;5048342;28;20128;-72
2023/01/03 08:21:16;;;;;;;2.35;1.30;;;;;;;;;;5048291;28;20028;-72
2023/01/03 08:24:01;;;;;;;2.75;1.63;;;;;;;;;;5034125;28;20036;-75
2023/01/03 08:26:47;;;;;;;4.43;1.90;;;;;;;;;;5056353;28;20032;-76
2023/01/03 08:29:32;;;;;;;4.82;1.88;;;;;;;;;;5040813;28;20170;-76
2023/01/03 08:32:18;;;;;;;4.55;2.50;;;;;;;;;;5048069;28;20504;-76
2023/01/03 08:35:03;;;;;;;5.90;1.85;;;;;;;;;;5047930;28;20151;-75
2023/01/03 08:37:49;;;;;;;3.38;1.73;;;;;;;;;;5042335;28;20047;-76
2023/01/03 08:40:35;;;;;;;4.25;2.28;;;;;;;;;;5047802;28;20496;-75
2023/01/03 08:43:21;;;;;;;4.25;1.90;;;;;;;;;;5046384;28;20396;-75
2023/01/03 08:46:07;;;;;;;3.58;1.77;;;;;;;;;;5046639;28;20117;-74
2023/01/03 08:48:53;;;;;;;4.07;1.80;;;;;;;;;;5050936;28;20032;-76
2023/01/03 08:51:38;;;;;;;5.47;2.42;;;;;;;;;;5048058;28;20028;-74
2023/01/03 08:54:23;;;;;;;5.95;2.20;;;;;;;;;;5047148;28;20032;-76
2023/01/03 08:57:09;;;;;;;7.03;2.10;;;;;;;;;;5051369;28;20031;-74
2023/01/03 08:59:54;;;;;;;3.72;1.77;;;;;;;;;;5035969;28;20025;-75
2023/01/03 09:02:39;;;;;;;4.88;2.22;;;;;;;;;;5034508;28;20136;-70
2023/01/03 09:05:25;;;;;;;4.78;2.60;;;;;;;;;;5047634;28;20032;-70
2023/01/03 09:08:10;;;;;;;5.57;2.30;;;;;;;;;;5050537;28;20040;-73
2023/01/03 09:10:56;;;;;;;5.85;1.77;;;;;;;;;;5047536;28;20115;-71
2023/01/03 09:13:41;;;;;;;2.83;1.98;;;;;;;;;;5038670;28;20044;-72
2023/01/03 09:16:26;;;;;;;4.55;2.92;;;;;;;;;;5046983;28;20408;-73
2023/01/03 09:19:12;;;;;;;4.97;2.10;;;;;;;;;;5047249;28;20033;-83
2023/01/03 09:21:57;;;;;;;3.50;1.90;;;;;;;;;;5050437;28;20044;-74
2023/01/03 09:24:42;;;;;;;5.00;2.53;;;;;;;;;;5034076;28;20114;-72
2023/01/03 09:27:27;;;;;;;5.90;2.75;;;;;;;;;;5047622;28;20037;-72
2023/01/03 09:30:14;;;;;;;6.38;2.53;;;;;;;;;;5045512;28;20037;-74
2023/01/03 09:32:59;;;;;;;6.57;2.55;;;;;;;;;;5047259;28;20495;-72
2023/01/03 09:35:45;;;;;;;4.70;2.67;;;;;;;;;;5047781;28;20047;-71
2023/01/03 09:38:30;;;;;;;5.38;2.50;;;;;;;;;;5043697;28;20037;-74
2023/01/03 09:41:21;;;;;;;4.65;3.13;;;;;;;;;;5033630;28;20037;-75
2023/01/03 09:44:07;;;;;;;8.18;2.63;;;;;;;;;;5039519;28;20033;-76
2023/01/03 09:46:52;;;;;;;9.43;3.80;;;;;;;;;;5047322;28;20037;-76
2023/01/03 09:49:38;;;;;;;8.88;2.53;;;;;;;;;;5036485;28;20384;-76
2023/01/03 10:05:22;;;;;;;5.93;2.63;;;;;;;;;;5046895;28;20041;-73
2023/01/03 10:08:10;;;;;;;6.93;3.42;;;;;;;;;;5043278;28;20039;-72
2023/01/03 10:10:58;;;;;;;6.10;2.97;;;;;;;;;;5032120;28;20052;-72
2023/01/03 10:13:46;;;;;;;8.00;2.75;;;;;;;;;;5036782;28;20040;-71
2023/01/03 10:16:47;;;;;;;7.53;3.30;;;;;;;;;;5043979;28;20131;-69
2023/01/03 10:19:38;;;;;;;9.48;3.28;;;;;;;;;;5045719;28;20040;-75
2023/01/03 10:22:25;;;;;;;7.47;3.25;;;;;;;;;;5051244;28;20039;-74
2023/01/03 10:25:16;;;;;;;7.97;3.17;;;;;;;;;;5032368;28;20043;-71
2023/01/03 10:28:09;;;;;;;9.80;5.00;;;;;;;;;;5046041;28;20068;-71
2023/01/03 10:31:24;;;;;;;10.25;3.33;;;;;;;;;;5044801;28;20032;-74
2023/01/03 10:34:09;;;;;;;5.72;3.35;;;;;;;;;;5056687;28;20033;-75
2023/01/03 10:36:55;;;;;;;7.15;2.95;;;;;;;;;;5038962;28;20033;-72
2023/01/03 10:39:40;;;;;;;8.70;3.30;;;;;;;;;;5051810;28;20037;-72
2023/01/03 10:42:29;;;;;;;7.25;2.72;;;;;;;;;;5049530;28;20476;-71
2023/01/03 10:45:16;;;;;;;9.38;2.80;;;;;;;;;;5040174;28;20037;-71
2023/01/03 10:48:02;;;;;;;9.35;3.28;;;;;;;;;;5053478;28;20086;-72
2023/01/03 10:50:49;;;;;;;6.80;2.65;;;;;;;;;;5049865;28;20522;-73
2023/01/03 10:53:38;;;;;;;8.65;3.28;;;;;;;;;;5050505;28;20091;-68
2023/01/03 10:56:23;;;;;;;7.55;2.85;;;;;;;;;;5049839;28;20033;-77
2023/01/03 10:59:10;;;;;;;6.90;2.80;;;;;;;;;;5033521;28;20111;-78
2023/01/03 11:01:55;;;;;;;7.47;2.90;;;;;;;;;;5050206;28;20464;-77
2023/01/03 11:04:41;;;;;;;7.95;3.35;;;;;;;;;;5051999;28;20060;-76
2023/01/03 11:07:26;;;;;;;5.53;2.30;;;;;;;;;;5058392;28;20021;-76
2023/01/03 11:10:18;;;;;;;7.40;3.92;;;;;;;;;;5049983;28;20105;-75
2023/01/03 11:13:23;;;;;;;7.03;2.80;;;;;;;;;;5045724;28;20607;-83
2023/01/03 11:16:12;;;;;;;4.63;2.55;;;;;;;;;;5035702;28;20025;-83
2023/01/03 11:18:59;;;;;;;5.90;2.63;;;;;;;;;;5036028;28;20052;-83
2023/01/03 11:21:50;;;;;;;5.13;2.05;;;;;;;;;;5049801;28;20037;-82
2023/01/03 11:24:39;;;;;;;6.30;2.72;;;;;;;;;;5049554;28;20032;-81
2023/01/03 11:27:42;;;;;;;10.20;2.13;;;;;;;;;;5051715;28;20104;-80
2023/01/03 11:30:31;;;;;;;3.92;2.13;;;;;;;;;;5050219;28;20122;-68
2023/01/03 11:33:31;;;;;;;5.95;2.15;;;;;;;;;;5036250;28;20528;-70
2023/01/03 11:36:39;;;;;;;3.72;1.95;;;;;;;;;;5049380;28;20507;-73
2023/01/03 11:39:49;;;;;;;4.88;1.92;;;;;;;;;;5049099;28;20032;-73
2023/01/03 11:42:43;;;;;;;2.67;1.63;;;;;;;;;;5049163;28;20124;-73
2023/01/03 11:45:31;;;;;;;4.18;2.03;;;;;;;;;;5036310;28;20116;-74
2023/01/03 11:48:35;;;;;;;3.40;1.58;;;;;;;;;;5050779;28;20031;-77
2023/01/03 11:51:27;;;;;;;3.42;1.75;;;;;;;;;;5034713;28;20530;-67
2023/01/03 11:54:44;;;;;;;5.00;1.17;;;;;;;;;;5036120;28;20043;-68
2023/01/03 11:57:46;;;;;;;1.70;1.00;;;;;;;;;;5039956;28;20052;-69
2023/01/03 12:00:40;;;;;;;5.40;1.35;;;;;;;;;;5044971;28;20122;-69
2023/01/03 12:03:44;;;;;;;4.65;1.30;;;;;;;;;;5048710;28;20036;-70
2023/01/03 12:06:37;;;;;;;1.95;1.00;;;;;;;;;;5039376;28;20309;-69
2023/01/03 12:09:41;;;;;;;4.03;0.90;;;;;;;;;;5053084;28;20029;-79
2023/01/03 12:12:32;;;;;;;2.63;1.00;;;;;;;;;;5049082;28;20404;-78
2023/01/03 12:15:21;;;;;;;1.77;1.00;;;;;;;;;;5048482;28;20040;-76
2023/01/03 12:18:15;;;;;;;1.35;0.80;;;;;;;;;;5036681;28;20594;-75
2023/01/03 12:21:09;;;;;;;4.65;0.88;;;;;;;;;;5048902;28;20040;-77
2023/01/03 12:23:57;;;;;;;2.05;0.70;;;;;;;;;;5039825;28;20091;-73
2023/01/03 12:26:53;;;;;;;10.45;3.83;;;;;;;;;;5048102;28;20530;-72
2023/01/03 12:29:41;;;;;;;7.72;2.05;;;;;;;;;;5048370;28;20037;-72
2023/01/03 12:32:44;;;;;;;1.52;1.13;;;;;;;;;;5045273;28;20037;-71
2023/01/03 12:35:32;;;;;;;1.30;1.00;;;;;;;;;;5040444;28;20073;-73
2023/01/03 12:38:20;;;;;;;3.67;1.05;;;;;;;;;;5056631;28;20434;-74
2023/01/03 12:41:35;;;;;;;3.63;1.10;;;;;;;;;;5050940;28;20029;-69
2023/01/03 12:44:24;;;;;;;3.88;0.77;;;;;;;;;;5042874;28;20449;-75
2023/01/03 12:47:29;;;;;;;2.67;0.80;;;;;;;;;;5041322;28;20032;-77
2023/01/03 12:50:31;;;;;;;2.38;0.90;;;;;;;;;;5033926;28;20102;-77
2023/01/03 12:53:20;;;;;;;1.65;0.90;;;;;;;;;;5033178;28;20079;-76
2023/01/03 12:56:20;;;;;;;1.25;0.70;;;;;;;;;;5046819;28;20510;-76
2023/01/03 12:59:24;;;;;;;1.23;0.80;;;;;;;;;;5046484;28;20435;-76
2023/01/03 13:02:20;;;;;;;2.20;0.88;;;;;;;;;;5047588;28;20703;-72
2023/01/03 13:05:11;;;;;;;1.17;0.85;;;;;;;;;;5048078;28;20037;-81
2023/01/03 13:07:56;;;;;;;1.33;0.80;;;;;;;;;;5051304;28;20033;-82
2023/01/03 13:10:46;;;;;;;4.53;0.90;;;;;;;;;;5033809;28;20488;-82
2023/01/03 13:13:32;;;;;;;1.27;0.82;;;;;;;;;;5051055;28;20048;-83
2023/01/03 13:16:32;;;;;;;2.15;1.10;;;;;;;;;;5025312;28;20474;-85
2023/01/03 13:19:21;;;;;;;2.00;0.98;;;;;;;;;;5046712;28;20045;-69
2023/01/03 13:22:29;;;;;;;3.17;1.67;;;;;;;;;;5051583;28;20032;-69
2023/01/03 13:25:27;;;;;;;0.60;0.57;;;;;;;;;;5037650;28;20368;-69
2023/01/03 13:28:18;;;;;;;1.00;0.70;;;;;;;;;;5047054;28;20032;-69
2023/01/03 13:31:15;;;;;;;2.33;1.35;;;;;;;;;;5046958;28;20115;-69
2023/01/03 13:34:33;;;;;;;1.52;0.80;;;;;;;;;;5047420;28;20295;-69
2023/01/03 13:37:24;;;;;;;4.15;0.82;;;;;;;;;;5054452;28;20098;-77
2023/01/03 13:40:22;;;;;;;2.30;1.17;;;;;;;;;;5043948;28;20041;-76
2023/01/03 13:43:19;;;;;;;3.33;0.93;;;;;;;;;;5047046;28;20040;-76
2023/01/03 13:46:23;;;;;;;1.75;1.00;;;;;;;;;;5045560;28;20545;-74
2023/01/03 13:49:16;;;;;;;3.47;0.90;;;;;;;;;;5044857;28;20446;-76
2023/01/03 13:52:04;;;;;;;2.92;0.77;;;;;;;;;;5046784;28;20029;-75
2023/01/03 13:54:57;;;;;;;0.77;0.73;;;;;;;;;;5047384;28;20032;-78
2023/01/03 13:57:52;;;;;;;1.88;1.05;;;;;;;;;;5047721;28;20431;-83
2023/01/03 14:00:39;;;;;;;2.83;0.93;;;;;;;;;;5033070;28;20480;-85
2023/01/03 14:03:33;;;;;;;1.05;0.70;;;;;;;;;;5048944;28;20033;-84
2023/01/03 14:06:35;;;;;;;1.65;0.85;;;;;;;;;;5051709;28;20123;-85
2023/01/03 14:09:32;;;;;;;2.28;0.90;;;;;;;;;;5064135;28;20052;-83
2023/01/03 14:12:33;;;;;;;1.92;0.90;;;;;;;;;;5050700;28;20053;-84
2023/01/03 14:15:20;;;;;;;2.03;0.75;;;;;;;;;;5027946;28;20464;-77
2023/01/03 14:18:18;;;;;;;3.22;1.13;;;;;;;;;;5057980;28;20036;-67
2023/01/03 14:21:05;;;;;;;2.92;0.80;;;;;;;;;;5050304;28;20029;-69
2023/01/03 14:23:53;;;;;;;2.35;0.90;;;;;;;;;;5042020;28;20082;-68
2023/01/03 14:26:38;;;;;;;3.33;1.15;;;;;;;;;;5050604;28;20029;-69
2023/01/03 14:29:25;;;;;;;1.52;0.90;;;;;;;;;;5050570;28;20041;-67
2023/01/03 14:32:21;;;;;;;6.97;3.75;;;;;;;;;;5041734;28;20041;-68
2023/01/03 14:35:27;;;;;;;4.50;2.90;;;;;;;;;;5024832;28;20037;-73
2023/01/03 14:38:21;;;;;;;7.22;3.17;;;;;;;;;;5058426;28;20074;-72
2023/01/03 14:41:22;;;;;;;46.22;22.15;;;;;;;;;;5050308;28;20041;-72
2023/01/03 14:44:10;;;;;;;5.07;2.03;;;;;;;;;;5042665;28;20036;-73
2023/01/03 14:46:57;;;;;;;1.98;1.10;;;;;;;;;;5040101;28;20039;-71
2023/01/03 14:49:48;;;;;;;3.10;1.65;;;;;;;;;;5059323;28;20029;-71
2023/01/03 14:52:36;;;;;;;2.78;1.98;;;;;;;;;;5049825;28;20090;-68
2023/01/03 14:55:26;;;;;;;3.60;1.10;;;;;;;;;;5050238;28;20351;-71
2023/01/03 14:58:30;;;;;;;2.20;0.95;;;;;;;;;;5036101;28;20048;-72
2023/01/03 15:01:15;;;;;;;2.33;1.00;;;;;;;;;;5039289;28;20056;-73
2023/01/03 15:04:00;;;;;;;2.45;1.00;;;;;;;;;;5049833;28;20094;-74
2023/01/03 15:06:56;;;;;;;4.45;1.17;;;;;;;;;;5051378;28;20029;-72
2023/01/03 15:09:42;;;;;;;2.10;0.90;;;;;;;;;;5038398;28;20052;-69
2023/01/03 15:12:29;;;;;;;5.18;1.13;;;;;;;;;;5035798;28;20433;-70
2023/01/03 15:15:19;;;;;;;5.18;1.50;;;;;;;;;;5026563;28;20190;-66
2023/01/03 15:18:06;;;;;;;2.00;1.00;;;;;;;;;;5049242;28;20452;-66
2023/01/03 15:20:52;;;;;;;4.68;0.95;;;;;;;;;;5050982;28;20044;-66
2023/01/03 15:23:47;;;;;;;5.13;1.20;;;;;;;;;;5054163;28;20036;-67
2023/01/03 15:26:37;;;;;;;4.07;0.90;;;;;;;;;;5049595;28;20033;-67
2023/01/03 15:29:24;;;;;;;2.33;1.20;;;;;;;;;;5049541;28;20088;-77
2023/01/03 15:32:09;;;;;;;6.70;1.40;;;;;;;;;;5042069;28;20697;-81
2023/01/03 15:34:55;;;;;;;3.25;1.50;;;;;;;;;;5035690;28;20021;-80
2023/01/03 15:37:40;;;;;;;3.42;1.67;;;;;;;;;;5050301;28;20468;-81
2023/01/03 15:40:25;;;;;;;2.63;1.20;;;;;;;;;;5035645;28;20079;-80
2023/01/03 15:43:20;;;;;;;4.35;1.67;;;;;;;;;;5048995;28;20044;-79
2023/01/03 15:46:16;;;;;;;2.38;1.10;;;;;;;;;;5038318;28;20481;-75
2023/01/03 15:49:03;;;;;;;1.50;0.98;;;;;;;;;;5052315;28;20036;-67
2023/01/03 15:51:49;;;;;;;2.75;1.38;;;;;;;;;;5048762;28;20488;-67
2023/01/03 15:54:34;;;;;;;8.77;2.03;;;;;;;;;;5057386;28;20081;-67
2023/01/03 15:57:20;;;;;;;3.25;1.67;;;;;;;;;;5034896;28;20033;-67
2023/01/03 16:00:07;;;;;;;9.05;2.67;;;;;;;;;;5042755;28;20088;-69
2023/01/03 16:02:52;;;;;;;4.22;1.75;;;;;;;;;;5036952;28;20059;-67
2023/01/03 16:05:37;;;;;;;5.05;1.67;;;;;;;;;;5049051;28;20075;-69
2023/01/03 16:08:36;;;;;;;3.63;1.80;;;;;;;;;;5026757;28;20144;-82
2023/01/03 16:11:25;;;;;;;4.95;2.35;;;;;;;;;;5037502;28;20029;-82
2023/01/03 16:14:14;;;;;;;6.95;2.10;;;;;;;;;;5048999;28;20052;-81
2023/01/03 16:16:59;;;;;;;5.60;1.60;;;;;;;;;;5055278;28;20036;-83
2023/01/03 16:19:45;;;;;;;5.05;1.98;;;;;;;;;;5048560;28;20029;-80
2023/01/03 16:22:30;;;;;;;4.50;2.20;;;;;;;;;;5038344;28;20025;-74
2023/01/03 16:25:15;;;;;;;9.25;1.83;;;;;;;;;;5051941;28;20343;-70
2023/01/03 16:27:52;;;;;;;5.13;1.65;;;;;;;;;;5069589;28;20032;-80
2023/01/03 16:30:38;;;;;;;8.23;2.40;;;;;;;;;;5068380;28;20428;-80
2023/01/03 16:33:24;;;;;;;5.50;2.42;;;;;;;;;;5061739;28;20508;-81
2023/01/03 16:36:28;;;;;;;7.47;3.17;;;;;;;;;;5068544;28;20044;-79
2023/01/03 16:39:15;;;;;;;4.40;2.58;;;;;;;;;;5068146;28;20032;-80
2023/01/03 16:42:12;;;;;;;5.53;2.17;;;;;;;;;;5068288;28;20039;-73
2023/01/03 16:44:57;;;;;;;3.95;1.75;;;;;;;;;;5066930;28;20051;-68
2023/01/03 16:47:42;;;;;;;3.20;1.45;;;;;;;;;;5070060;28;20038;-69
2023/01/03 16:50:29;;;;;;;3.30;1.88;;;;;;;;;;5058577;28;20033;-72
2023/01/03 16:53:23;;;;;;;7.18;2.38;;;;;;;;;;5068093;28;20483;-70
2023/01/03 16:56:10;;;;;;;5.88;2.08;;;;;;;;;;5056287;28;20544;-72
2023/01/03 16:58:55;;;;;;;6.65;2.58;;;;;;;;;;5073969;28;20107;-75
2023/01/03 17:01:40;;;;;;;6.57;1.98;;;;;;;;;;5060688;28;20131;-80
2023/01/03 17:04:25;;;;;;;6.43;1.98;;;;;;;;;;5077700;28;20115;-69
2023/01/03 17:07:17;;;;;;;4.40;1.95;;;;;;;;;;5070853;28;20203;-71
2023/01/03 17:10:03;;;;;;;6.90;1.70;;;;;;;;;;5058864;28;20033;-70
2023/01/03 17:12:48;;;;;;;4.93;1.90;;;;;;;;;;5070545;28;20100;-70
2023/01/03 17:15:33;;;;;;;3.95;2.53;;;;;;;;;;5072698;28;20040;-71
2023/01/03 17:18:23;;;;;;;3.78;2.40;;;;;;;;;;5074060;28;20505;-70
2023/01/03 17:21:08;;;;;;;;;;;;;;;;;;5069150;28;20056;-70
2023/01/03 17:23:56;;;;;;;5.72;2.53;;;;;;;;;;5072889;28;19913;-67
2023/01/03 17:26:41;;;;;;;4.00;2.10;;;;;;;;;;5041836;28;20051;-67
2023/01/03 17:29:27;;;;;;;5.88;2.08;;;;;;;;;;5066876;28;20459;-68
2023/01/03 17:32:16;;;;;;;3.30;1.80;;;;;;;;;;5058527;28;20047;-67
2023/01/03 17:35:03;;;;;;;5.55;2.42;;;;;;;;;;5067396;28;20036;-69
2023/01/03 17:37:49;;;;;;;3.28;1.92;;;;;;;;;;5076095;28;20044;-71
2023/01/03 17:40:34;;;;;;;6.63;2.58;;;;;;;;;;5076580;28;20028;-69
2023/01/03 17:43:21;;;;;;;6.85;3.05;;;;;;;;;;5067101;28;20032;-69
2023/01/03 17:49:23;;;;;;;5.95;2.83;;;;;;;;;;5070001;28;20471;-67
2023/01/03 17:52:12;;;;;;;7.38;2.70;;;;;;;;;;5053246;28;20032;-69
2023/01/03 17:54:58;;;;;;;4.13;2.45;;;;;;;;;;5072321;28;20051;-75
2023/01/03 17:57:43;;;;;;;5.82;2.08;;;;;;;;;;5070573;28;20036;-71
2023/01/03 18:00:29;;;;;;;7.78;2.10;;;;;;;;;;5051579;28;20033;-72